createdAt,value
2023-03-16T00:01:06.135Z,0.90
2023-03-16T00:03:34.350Z,0.80
2023-03-16T00:06:03.719Z,0.80
2023-03-16T00:08:31.657Z,0.70
2023-03-16T00:10:59.550Z,0.60
2023-03-16T00:13:27.544Z,0.70
2023-03-16T00:15:57.067Z,0.60
2023-03-16T00:18:27.339Z,0.60
2023-03-16T00:20:58.107Z,0.60
2023-03-16T00:23:28.227Z,0.50
2023-03-16T00:25:56.664Z,0.50
2023-03-16T00:28:24.935Z,0.50
2023-03-16T00:30:53.181Z,0.50
2023-03-16T00:33:21.018Z,0.40
2023-03-16T00:35:50.469Z,0.40
2023-03-16T00:38:21.724Z,0.30
2023-03-16T00:40:51.407Z,0.20
2023-03-16T00:43:19.278Z,0.20
2023-03-16T00:45:47.469Z,0.10
2023-03-16T00:48:16.375Z,0.00
2023-03-16T00:50:44.231Z,0.00
2023-03-16T00:53:12.104Z,0.00
2023-03-16T00:55:39.972Z,0.00
2023-03-16T00:58:09.612Z,0.00
2023-03-16T01:00:37.602Z,0.00
2023-03-16T01:03:05.516Z,0.00
2023-03-16T01:05:33.687Z,0.00
2023-03-16T01:08:02.785Z,-0.10
2023-03-16T01:10:30.704Z,-0.20
2023-03-16T01:12:58.652Z,-0.20
2023-03-16T01:15:28.198Z,-0.20
2023-03-16T01:17:56.060Z,-0.30
2023-03-16T01:20:24.600Z,-0.30
2023-03-16T01:22:52.551Z,-0.40
2023-03-16T01:25:21.194Z,-0.40
2023-03-16T01:27:49.079Z,-0.40
2023-03-16T01:30:17.296Z,-0.40
2023-03-16T01:32:46.576Z,-0.40
2023-03-16T01:35:14.913Z,-0.40
2023-03-16T01:37:42.823Z,-0.40
2023-03-16T01:40:12.497Z,-0.50
2023-03-16T01:42:47.158Z,-0.40
2023-03-16T01:45:53.081Z,-0.40
2023-03-16T01:48:25.393Z,-0.40
2023-03-16T01:50:54.574Z,-0.30
2023-03-16T01:53:24.097Z,-0.40
2023-03-16T01:55:55.194Z,-0.40
2023-03-16T01:58:23.814Z,-0.30
2023-03-16T02:00:51.713Z,-0.40
2023-03-16T02:03:22.732Z,-0.40
2023-03-16T02:05:55.139Z,-0.50
2023-03-16T02:08:24.126Z,-0.50
2023-03-16T02:10:54.584Z,-0.50
2023-03-16T02:13:23.526Z,-0.50
2023-03-16T02:15:53.484Z,-0.60
2023-03-16T02:18:23.591Z,-0.60
2023-03-16T02:20:57.968Z,-0.70
2023-03-16T02:23:26.753Z,-0.70
2023-03-16T02:26:01.564Z,-0.70
2023-03-16T02:28:35.156Z,-0.70
2023-03-16T02:31:05.631Z,-0.70
2023-03-16T02:33:34.962Z,-0.60
2023-03-16T02:36:02.906Z,-0.50
2023-03-16T02:38:31.675Z,-0.50
2023-03-16T02:41:02.211Z,-0.60
2023-03-16T02:43:34.102Z,-0.70
2023-03-16T02:46:05.552Z,-0.70
2023-03-16T02:48:38.560Z,-0.70
2023-03-16T02:51:06.810Z,-0.60
2023-03-16T02:53:34.646Z,-0.60
2023-03-16T02:56:03.374Z,-0.60
2023-03-16T02:58:31.886Z,-0.60
2023-03-16T03:01:01.358Z,-0.60
2023-03-16T03:03:34.317Z,-0.60
2023-03-16T03:06:02.713Z,-0.60
2023-03-16T03:08:32.812Z,-0.70
2023-03-16T03:11:00.668Z,-0.70
2023-03-16T03:13:28.949Z,-0.60
2023-03-16T03:15:56.890Z,-0.60
2023-03-16T03:18:25.444Z,-0.60
2023-03-16T03:20:55.032Z,-0.60
2023-03-16T03:23:23.630Z,-0.70
2023-03-16T03:25:51.973Z,-0.70
2023-03-16T03:28:19.885Z,-0.70
2023-03-16T03:30:47.764Z,-0.70
2023-03-16T03:33:15.710Z,-0.60
2023-03-16T03:35:43.611Z,-0.70
2023-03-16T03:38:12.827Z,-0.60
2023-03-16T03:40:40.763Z,-0.60
2023-03-16T03:43:17.768Z,-0.70
2023-03-16T03:45:45.782Z,-0.70
2023-03-16T03:48:13.877Z,-0.70
2023-03-16T03:50:41.805Z,-0.80
2023-03-16T03:53:09.674Z,-0.80
2023-03-16T03:55:38.897Z,-0.70
2023-03-16T03:58:06.797Z,-0.80
2023-03-16T04:00:35.590Z,-0.80
2023-03-16T04:03:03.790Z,-0.80
2023-03-16T04:05:32.070Z,-0.90
2023-03-16T04:08:00.144Z,-0.90
2023-03-16T04:10:30.566Z,-0.90
2023-03-16T04:13:00.687Z,-0.90
2023-03-16T04:15:28.901Z,-0.80
2023-03-16T04:17:56.746Z,-0.80
2023-03-16T04:20:24.720Z,-0.80
2023-03-16T04:22:58.778Z,-0.60
2023-03-16T04:25:28.231Z,-0.50
2023-03-16T04:27:56.270Z,-0.30
2023-03-16T04:30:25.765Z,-0.20
2023-03-16T04:32:53.746Z,-0.10
2023-03-16T04:35:22.137Z,-0.10
2023-03-16T04:37:50.042Z,-0.10
2023-03-16T04:40:19.382Z,-0.10
2023-03-16T04:42:48.289Z,-0.20
2023-03-16T04:45:18.560Z,-0.20
2023-03-16T04:47:49.622Z,-0.10
2023-03-16T04:50:17.800Z,-0.20
2023-03-16T04:52:45.713Z,-0.20
2023-03-16T04:55:13.536Z,-0.20
2023-03-16T04:57:41.579Z,-0.20
2023-03-16T05:00:14.006Z,-0.20
2023-03-16T05:02:41.893Z,-0.20
2023-03-16T05:05:11.618Z,-0.20
2023-03-16T05:07:41.382Z,-0.10
2023-03-16T05:10:10.270Z,-0.20
2023-03-16T05:12:38.374Z,-0.30
2023-03-16T05:15:07.390Z,-0.40
2023-03-16T05:17:35.645Z,-0.50
2023-03-16T05:20:06.370Z,-0.50
2023-03-16T05:22:36.096Z,-0.50
2023-03-16T05:25:05.390Z,-0.50
2023-03-16T05:27:34.237Z,-0.60
2023-03-16T05:30:02.213Z,-0.50
2023-03-16T05:32:30.143Z,-0.60
2023-03-16T05:34:58.627Z,-0.60
2023-03-16T05:37:26.656Z,-0.60
2023-03-16T05:39:57.653Z,-0.60
2023-03-16T05:42:26.949Z,-0.60
2023-03-16T05:44:54.906Z,-0.70
2023-03-16T05:47:22.827Z,-0.60
2023-03-16T05:49:50.688Z,-0.50
2023-03-16T05:52:18.622Z,-0.50
2023-03-16T05:54:46.410Z,-0.60
2023-03-16T05:57:15.597Z,-0.50
2023-03-16T05:59:43.831Z,-0.50
2023-03-16T06:02:12.284Z,-0.50
2023-03-16T06:04:40.153Z,-0.50
2023-03-16T06:07:08.479Z,-0.40
2023-03-16T06:09:36.509Z,-0.40
2023-03-16T06:12:05.201Z,-0.40
2023-03-16T06:14:34.976Z,-0.30
2023-03-16T06:17:02.875Z,-0.30
2023-03-16T06:19:31.871Z,-0.40
2023-03-16T06:21:59.784Z,-0.40
2023-03-16T06:24:27.692Z,-0.30
2023-03-16T06:26:55.554Z,-0.20
2023-03-16T06:29:23.398Z,-0.20
2023-03-16T06:31:54.629Z,-0.20
2023-03-16T06:34:22.665Z,-0.10
2023-03-16T06:36:50.505Z,0.10
2023-03-16T06:39:18.453Z,0.30
2023-03-16T06:41:46.357Z,0.40
2023-03-16T06:44:14.202Z,0.50
2023-03-16T06:46:42.050Z,0.60
2023-03-16T06:49:11.647Z,0.80
2023-03-16T06:51:39.699Z,0.90
2023-03-16T06:54:07.667Z,1.00
2023-03-16T06:56:35.581Z,1.20
2023-03-16T06:59:03.468Z,1.30
2023-03-16T07:01:31.797Z,1.30
2023-03-16T07:03:59.854Z,1.40
2023-03-16T07:06:29.215Z,1.50
2023-03-16T07:08:57.199Z,1.60
2023-03-16T07:11:25.061Z,1.60
2023-03-16T07:13:52.940Z,1.70
2023-03-16T07:16:20.892Z,1.70
2023-03-16T07:18:48.793Z,1.80
2023-03-16T07:21:16.838Z,1.90
2023-03-16T07:23:46.265Z,1.90
2023-03-16T07:26:14.202Z,2.00
2023-03-16T07:28:42.523Z,2.20
2023-03-16T07:31:10.446Z,2.30
2023-03-16T07:33:38.462Z,2.40
2023-03-16T07:36:06.822Z,2.60
2023-03-16T07:38:34.820Z,2.70
2023-03-16T07:41:04.151Z,3.00
2023-03-16T07:43:32.211Z,3.40
2023-03-16T07:46:00.060Z,3.80
2023-03-16T07:48:27.990Z,4.40
2023-03-16T07:50:55.939Z,4.70
2023-03-16T07:53:23.840Z,4.90
2023-03-16T07:55:51.684Z,5.00
2023-03-16T07:58:21.664Z,5.20
2023-03-16T08:00:49.598Z,5.20
2023-03-16T08:03:17.504Z,5.20
2023-03-16T08:05:45.468Z,5.20
2023-03-16T08:08:15.967Z,5.60
2023-03-16T08:10:43.902Z,5.80
2023-03-16T08:13:11.832Z,6.10
2023-03-16T08:15:41.119Z,6.30
2023-03-16T08:18:10.125Z,6.50
2023-03-16T08:20:38.100Z,6.60
2023-03-16T08:23:06.985Z,6.50
2023-03-16T08:25:35.203Z,6.40
2023-03-16T08:28:05.985Z,6.50
2023-03-16T08:30:33.937Z,6.60
2023-03-16T08:33:03.764Z,6.60
2023-03-16T08:35:31.715Z,6.60
2023-03-16T08:37:59.795Z,6.50
2023-03-16T08:40:29.766Z,6.20
2023-03-16T08:42:57.953Z,6.30
2023-03-16T08:45:26.580Z,6.20
2023-03-16T08:47:54.438Z,6.50
2023-03-16T08:50:23.686Z,6.50
2023-03-16T08:52:51.511Z,6.70
2023-03-16T08:55:19.559Z,6.80
2023-03-16T08:57:48.696Z,7.00
2023-03-16T09:00:20.450Z,7.30
2023-03-16T09:02:48.344Z,7.70
2023-03-16T09:05:18.136Z,7.70
2023-03-16T09:07:48.986Z,7.70
2023-03-16T09:10:17.142Z,7.90
2023-03-16T09:12:45.800Z,8.00
2023-03-16T09:15:14.790Z,8.00
2023-03-16T09:17:44.982Z,7.90
2023-03-16T09:20:22.510Z,7.90
2023-03-16T09:22:55.985Z,8.00
2023-03-16T09:25:24.096Z,8.00
2023-03-16T09:27:52.647Z,8.00
2023-03-16T09:30:20.727Z,8.10
2023-03-16T09:32:49.242Z,8.10
2023-03-16T09:35:17.492Z,8.00
2023-03-16T09:38:01.192Z,7.80
2023-03-16T09:40:35.878Z,7.80
2023-03-16T09:43:21.981Z,8.00
2023-03-16T09:45:59.640Z,8.20
2023-03-16T09:48:29.898Z,8.20
2023-03-16T09:50:59.998Z,8.30
2023-03-16T09:53:30.836Z,8.40
2023-03-16T09:56:04.976Z,8.60
2023-03-16T09:58:34.071Z,8.90
2023-03-16T10:01:11.198Z,9.20
2023-03-16T10:03:59.008Z,9.20
2023-03-16T10:06:27.859Z,9.20
2023-03-16T10:09:06.858Z,9.40
2023-03-16T10:11:41.193Z,9.30
2023-03-16T10:14:17.647Z,9.30
2023-03-16T10:16:49.067Z,9.40
2023-03-16T10:19:21.521Z,9.40
2023-03-16T10:21:51.029Z,9.30
2023-03-16T10:24:28.546Z,9.40
2023-03-16T10:27:00.539Z,9.50
2023-03-16T10:29:33.889Z,9.30
2023-03-16T10:32:09.768Z,9.30
2023-03-16T10:34:37.631Z,9.40
2023-03-16T10:37:09.095Z,9.30
2023-03-16T10:39:42.919Z,9.20
2023-03-16T10:42:18.026Z,9.10
2023-03-16T10:44:46.586Z,9.20
2023-03-16T10:47:21.167Z,9.10
2023-03-16T10:49:51.302Z,9.10
2023-03-16T10:52:24.716Z,9.10
2023-03-16T10:54:56.030Z,9.10
2023-03-16T10:57:33.512Z,9.10
2023-03-16T11:00:16.006Z,9.00
2023-03-16T11:02:44.536Z,8.90
2023-03-16T11:05:25.755Z,9.00
2023-03-16T11:07:59.270Z,9.10
2023-03-16T11:10:32.279Z,9.20
2023-03-16T11:13:10.563Z,9.30
2023-03-16T11:15:43.726Z,9.30
2023-03-16T11:18:23.977Z,9.40
2023-03-16T11:20:52.684Z,9.50
2023-03-16T11:23:26.731Z,9.70
2023-03-16T11:25:58.739Z,9.70
2023-03-16T11:28:35.883Z,9.80
2023-03-16T11:31:14.665Z,9.80
2023-03-16T11:33:42.548Z,9.80
2023-03-16T11:36:32.437Z,9.70
2023-03-16T11:39:11.059Z,9.60
2023-03-16T11:41:53.465Z,9.70
2023-03-16T11:44:33.733Z,9.90
2023-03-16T11:47:08.978Z,10.10
2023-03-16T11:49:53.353Z,10.20
2023-03-16T11:52:35.352Z,10.20
2023-03-16T11:55:17.967Z,10.40
2023-03-16T11:57:55.004Z,10.60
2023-03-16T12:00:34.430Z,10.70
2023-03-16T12:03:32.413Z,10.90
2023-03-16T12:06:13.610Z,11.10
2023-03-16T12:09:02.158Z,11.10
2023-03-16T12:11:35.417Z,11.30
2023-03-16T12:14:14.507Z,11.40
2023-03-16T12:16:49.942Z,11.40
2023-03-16T12:19:24.885Z,11.40
2023-03-16T12:22:02.479Z,11.30
2023-03-16T12:24:36.459Z,11.30
2023-03-16T12:27:05.041Z,11.20
2023-03-16T12:29:41.492Z,11.10
2023-03-16T12:32:17.261Z,11.10
2023-03-16T12:34:52.792Z,11.10
2023-03-16T12:37:29.245Z,11.00
2023-03-16T12:40:20.871Z,10.90
2023-03-16T12:43:02.683Z,10.90
2023-03-16T12:45:38.169Z,10.90
2023-03-16T12:48:19.703Z,11.00
2023-03-16T12:50:53.467Z,11.10
2023-03-16T12:53:42.221Z,11.40
2023-03-16T12:56:12.790Z,11.50
2023-03-16T12:58:47.124Z,11.70
2023-03-16T13:01:17.340Z,11.80
2023-03-16T13:03:49.559Z,12.00
2023-03-16T13:06:20.663Z,12.00
2023-03-16T13:08:52.652Z,12.10
2023-03-16T13:11:20.974Z,12.20
2023-03-16T13:13:52.129Z,12.30
2023-03-16T13:16:29.084Z,12.30
2023-03-16T13:18:59.154Z,12.30
2023-03-16T13:21:37.875Z,12.30
2023-03-16T13:24:28.465Z,12.20
2023-03-16T13:27:01.632Z,11.90
2023-03-16T13:29:31.844Z,11.70
2023-03-16T13:32:03.370Z,11.70
2023-03-16T13:34:37.507Z,11.70
2023-03-16T13:37:05.603Z,11.60
2023-03-16T13:39:34.148Z,11.60
2023-03-16T13:42:04.787Z,11.80
2023-03-16T13:44:33.387Z,11.70
2023-03-16T13:47:05.054Z,11.70
2023-03-16T13:49:34.580Z,11.70
2023-03-16T13:52:05.885Z,11.70
2023-03-16T13:54:33.845Z,11.70
2023-03-16T13:57:07.185Z,11.80
2023-03-16T13:59:35.993Z,11.90
2023-03-16T14:02:03.988Z,12.00
2023-03-16T14:04:34.995Z,12.00
2023-03-16T14:07:04.736Z,12.10
2023-03-16T14:09:35.450Z,12.10
2023-03-16T14:12:03.765Z,12.10
2023-03-16T14:14:39.176Z,12.10
2023-03-16T14:17:12.830Z,12.00
2023-03-16T14:19:46.741Z,11.90
2023-03-16T14:22:16.760Z,11.90
2023-03-16T14:24:47.979Z,11.90
2023-03-16T14:27:33.798Z,12.10
2023-03-16T14:30:03.161Z,12.20
2023-03-16T14:32:33.440Z,12.10
2023-03-16T14:35:12.929Z,12.00
2023-03-16T14:37:42.243Z,12.00
2023-03-16T14:40:23.597Z,12.00
2023-03-16T14:42:52.163Z,12.00
2023-03-16T14:45:21.766Z,12.10
2023-03-16T14:47:53.707Z,12.10
2023-03-16T14:50:26.286Z,12.10
2023-03-16T14:52:57.291Z,12.10
2023-03-16T14:55:25.871Z,12.10
2023-03-16T14:57:54.062Z,12.10
2023-03-16T15:00:23.218Z,12.20
2023-03-16T15:03:05.045Z,12.20
2023-03-16T15:05:38.041Z,12.20
2023-03-16T15:08:09.495Z,12.20
2023-03-16T15:10:38.155Z,12.10
2023-03-16T15:13:16.848Z,12.10
2023-03-16T15:15:47.127Z,12.10
2023-03-16T15:18:15.062Z,12.10
2023-03-16T15:20:45.868Z,12.10
2023-03-16T15:23:16.530Z,12.20
2023-03-16T15:25:46.061Z,12.10
2023-03-16T15:28:17.400Z,12.10
2023-03-16T15:30:46.726Z,12.20
2023-03-16T15:33:15.243Z,12.20
2023-03-16T15:35:45.559Z,12.30
2023-03-16T15:38:16.652Z,12.30
2023-03-16T15:40:45.873Z,12.30
2023-03-16T15:43:15.176Z,12.20
2023-03-16T15:45:43.570Z,12.20
2023-03-16T15:48:11.987Z,12.20
2023-03-16T15:50:42.607Z,12.20
2023-03-16T15:53:29.462Z,12.20
2023-03-16T15:56:01.185Z,12.10
2023-03-16T15:58:32.428Z,12.10
2023-03-16T16:01:01.878Z,12.10
2023-03-16T16:03:30.196Z,12.00
2023-03-16T16:05:58.167Z,12.00
2023-03-16T16:08:27.819Z,11.90
2023-03-16T16:10:56.449Z,11.90
2023-03-16T16:13:43.057Z,11.80
2023-03-16T16:16:14.442Z,11.80
2023-03-16T16:18:43.073Z,11.70
2023-03-16T16:21:17.780Z,11.70
2023-03-16T16:23:47.691Z,11.70
2023-03-16T16:26:27.946Z,11.70
2023-03-16T16:28:59.348Z,11.70
2023-03-16T16:31:29.284Z,11.60
2023-03-16T16:33:59.275Z,11.60
2023-03-16T16:36:27.572Z,11.50
2023-03-16T16:38:57.223Z,11.50
2023-03-16T16:41:29.127Z,11.50
2023-03-16T16:43:58.102Z,11.40
2023-03-16T16:46:28.424Z,11.40
2023-03-16T16:49:01.615Z,11.40
2023-03-16T16:51:30.968Z,11.30
2023-03-16T16:54:01.479Z,11.30
2023-03-16T16:56:31.805Z,11.20
2023-03-16T16:59:03.780Z,11.20
2023-03-16T17:01:35.013Z,11.10
2023-03-16T17:04:03.811Z,11.00
2023-03-16T17:06:31.950Z,11.00
2023-03-16T17:09:01.495Z,10.90
2023-03-16T17:11:31.540Z,10.90
2023-03-16T17:14:01.917Z,10.80
2023-03-16T17:16:32.815Z,10.80
2023-03-16T17:19:01.294Z,10.80
2023-03-16T17:21:31.289Z,10.70
2023-03-16T17:24:01.542Z,10.70
2023-03-16T17:26:32.901Z,10.60
2023-03-16T17:29:03.610Z,10.50
2023-03-16T17:31:35.194Z,10.40
2023-03-16T17:34:04.650Z,10.40
2023-03-16T17:36:32.470Z,10.30
2023-03-16T17:39:03.380Z,10.20
2023-03-16T17:41:33.200Z,10.20
2023-03-16T17:44:05.995Z,10.10
2023-03-16T17:46:34.221Z,10.00
2023-03-16T17:49:02.315Z,9.90
2023-03-16T17:51:32.258Z,9.80
2023-03-16T17:54:01.485Z,9.60
2023-03-16T17:56:30.243Z,9.40
2023-03-16T17:58:58.776Z,9.30
2023-03-16T18:01:30.247Z,9.20
2023-03-16T18:03:58.413Z,9.10
2023-03-16T18:06:29.136Z,9.00
2023-03-16T18:08:57.957Z,9.00
2023-03-16T18:11:35.515Z,9.00
2023-03-16T18:14:05.012Z,9.20
2023-03-16T18:16:33.187Z,9.60
2023-03-16T18:19:05.633Z,9.80
2023-03-16T18:21:34.728Z,9.90
2023-03-16T18:24:02.623Z,9.90
2023-03-16T18:26:31.870Z,9.90
2023-03-16T18:28:59.706Z,9.90
2023-03-16T18:31:29.180Z,9.90
2023-03-16T18:33:59.681Z,9.90
2023-03-16T18:36:29.498Z,9.90
2023-03-16T18:38:59.577Z,10.00
2023-03-16T18:41:29.426Z,10.00
2023-03-16T18:44:03.520Z,10.10
2023-03-16T18:46:33.166Z,10.10
2023-03-16T18:49:03.788Z,10.20
2023-03-16T18:51:32.220Z,10.30
2023-03-16T18:54:01.008Z,10.10
2023-03-16T18:56:29.906Z,10.10
2023-03-16T18:58:59.217Z,10.20
2023-03-16T19:01:29.758Z,10.20
2023-03-16T19:03:59.040Z,10.20
2023-03-16T19:06:30.823Z,10.20
2023-03-16T19:09:03.709Z,10.00
2023-03-16T19:11:32.079Z,9.80
2023-03-16T19:14:01.667Z,9.70
2023-03-16T19:16:29.706Z,9.60
2023-03-16T19:18:57.655Z,9.50
2023-03-16T19:21:25.887Z,9.40
2023-03-16T19:23:58.039Z,9.20
2023-03-16T19:26:26.543Z,9.10
2023-03-16T19:28:54.718Z,8.90
2023-03-16T19:31:26.988Z,8.80
2023-03-16T19:33:56.782Z,8.70
2023-03-16T19:36:26.277Z,8.50
2023-03-16T19:38:54.632Z,8.40
2023-03-16T19:41:26.785Z,8.40
2023-03-16T19:43:57.604Z,8.30
2023-03-16T19:46:28.249Z,8.20
2023-03-16T19:48:56.693Z,8.20
2023-03-16T19:51:28.996Z,8.00
2023-03-16T19:53:57.312Z,7.90
2023-03-16T19:56:26.896Z,7.80
2023-03-16T19:58:55.568Z,7.80
2023-03-16T20:01:31.075Z,7.70
2023-03-16T20:04:01.422Z,7.70
2023-03-16T20:06:29.406Z,7.60
2023-03-16T20:08:57.383Z,7.60
2023-03-16T20:11:29.172Z,7.40
2023-03-16T20:13:58.188Z,7.30
2023-03-16T20:16:29.937Z,7.20
2023-03-16T20:19:00.304Z,7.10
2023-03-16T20:21:30.904Z,7.10
2023-03-16T20:23:58.758Z,7.10
2023-03-16T20:26:31.569Z,7.00
2023-03-16T20:29:01.048Z,7.00
2023-03-16T20:31:34.420Z,7.00
2023-03-16T20:34:02.543Z,7.00
2023-03-16T20:36:30.609Z,7.00
2023-03-16T20:38:58.500Z,7.00
2023-03-16T20:41:28.709Z,7.00
2023-03-16T20:43:59.354Z,6.90
2023-03-16T20:46:29.660Z,6.90
2023-03-16T20:49:00.622Z,6.70
2023-03-16T20:51:29.175Z,6.60
2023-03-16T20:53:57.071Z,6.50
2023-03-16T20:56:26.541Z,6.40
2023-03-16T20:58:56.025Z,6.40
2023-03-16T21:01:25.099Z,6.40
2023-03-16T21:03:55.430Z,6.40
2023-03-16T21:06:27.093Z,6.40
2023-03-16T21:08:57.080Z,6.40
2023-03-16T21:11:28.670Z,6.40
2023-03-16T21:13:56.671Z,6.20
2023-03-16T21:16:25.387Z,6.10
2023-03-16T21:18:53.412Z,6.00
2023-03-16T21:21:21.990Z,6.10
2023-03-16T21:23:51.544Z,6.10
2023-03-16T21:26:22.128Z,6.10
2023-03-16T21:28:56.539Z,6.10
2023-03-16T21:31:25.870Z,6.20
2023-03-16T21:33:55.543Z,6.20
2023-03-16T21:36:26.327Z,6.20
2023-03-16T21:38:56.502Z,6.20
2023-03-16T21:41:25.612Z,6.30
2023-03-16T21:43:54.515Z,6.30
2023-03-16T21:46:25.441Z,6.30
2023-03-16T21:48:55.648Z,6.20
2023-03-16T21:51:25.922Z,6.10
2023-03-16T21:53:55.659Z,6.00
2023-03-16T21:56:26.123Z,5.90
2023-03-16T21:58:55.060Z,5.80
2023-03-16T22:01:25.675Z,5.70
2023-03-16T22:03:57.369Z,5.60
2023-03-16T22:06:27.885Z,5.50
2023-03-16T22:08:58.676Z,5.40
2023-03-16T22:11:28.637Z,5.40
2023-03-16T22:13:57.538Z,5.30
2023-03-16T22:16:27.933Z,5.40
2023-03-16T22:18:58.039Z,5.50
2023-03-16T22:21:34.491Z,5.60
2023-03-16T22:24:05.370Z,5.70
2023-03-16T22:26:34.656Z,5.70
2023-03-16T22:29:07.644Z,5.60
2023-03-16T22:31:38.963Z,5.50
2023-03-16T22:34:07.337Z,5.50
2023-03-16T22:36:35.471Z,5.40
2023-03-16T22:39:08.723Z,5.40
2023-03-16T22:41:36.652Z,5.40
2023-03-16T22:44:04.656Z,5.50
2023-03-16T22:46:32.678Z,5.50
2023-03-16T22:49:00.896Z,5.60
2023-03-16T22:51:31.907Z,5.70
2023-03-16T22:54:03.428Z,5.90
2023-03-16T22:56:33.640Z,6.00
2023-03-16T22:59:04.292Z,6.10
2023-03-16T23:01:35.502Z,6.20
2023-03-16T23:04:03.465Z,6.20
2023-03-16T23:06:32.786Z,6.20
2023-03-16T23:09:00.616Z,6.20
2023-03-16T23:11:31.319Z,6.10
2023-03-16T23:14:01.474Z,6.00
2023-03-16T23:16:32.284Z,6.00
2023-03-16T23:19:01.614Z,5.90
2023-03-16T23:21:31.844Z,5.90
2023-03-16T23:24:03.846Z,5.90
2023-03-16T23:26:32.782Z,6.00
2023-03-16T23:29:01.939Z,5.90
2023-03-16T23:31:30.715Z,5.90
2023-03-16T23:33:58.777Z,5.90
2023-03-16T23:36:27.296Z,5.80
2023-03-16T23:38:55.284Z,5.70
2023-03-16T23:41:24.888Z,5.60
2023-03-16T23:43:54.282Z,5.60
2023-03-16T23:46:25.815Z,5.60
2023-03-16T23:48:56.461Z,5.70
2023-03-16T23:51:28.204Z,5.70
2023-03-16T23:53:56.317Z,5.90
2023-03-16T23:56:24.836Z,5.90
2023-03-16T23:58:52.751Z,6.00
